Crest Hill, IL (60403)

7:40 AM CDT on March 24, 2017 (GMT -0500)
St Josephs | | Change Station

Elev 663 ft 41.55 °N, 88.10 °W | Updated 16 seconds ago

Clear
Clear
54.1 °F
Feels Like 54.1 °F
N
6.7
Wind Variable Wind from SSW
Gusts 7.4 mph

Today
High -- | Low -- °F
--% Chance of Precip.
Yesterday
High -- | Low -- °F
Precip. -- in
Pressure 29.94 in
Visibility 10.0 miles
Clouds Clear
Dew Point 45 °F
Humidity 70%
Rainfall 0.00 in
Snow Depth Not available.
6:48 AM 7:09 PM
Waning Crescent, 15% visible
METAR KLOT 241215Z AUTO 20010KT 10SM CLR 10/08 A2994 RMK AO2 T01000081
Pressure 29.94 in
Visibility 10.0 miles
Clouds Clear
Dew Point 45 °F
Humidity 70%
Rainfall 0.00 in
Snow Depth Not available.
6:48 AM 7:09 PM
Waning Crescent, 15% visible
METAR KLOT 241215Z AUTO 20010KT 10SM CLR 10/08 A2994 RMK AO2 T01000081

Get Severe Weather Alerts

Thanks for signing up!

Be on the lookout for a verification email in your inbox.

You'll start receiving the daily forecast at 8 AM.

×

10-Day Weather Forecast

Almanac

Astronomy

Mar. 24, 2017 Rise Set
Actual Time
Civil Twilight
Nautical Twilight
Astronomical Twilight
Moon
Length of Visible Light
Length of Day
Tomorrow will be .
, % of the Moon is Illuminated

Today's Extremes

State Highs State Lows

Community

WunderPhotos

Upload Photos

1,962,540 photos uploaded!

WunderBlog® & News

Nearby

Air Quality

  Air Quality AQ Index Pollutant
Not available.

Snow Depth

Station Depth Elevation

Earthquake Activity

City Distance Mag. Time & Date
Minimum magnitude displayed is 2.5.

Earthquake Activity

City Distance Mag. Time & Date
Minimum magnitude displayed is 2.5.

Coastal Water Temperatures

Place Temperature

Stations

Nearby Weather Stations

Station Location Temp. Windchill Dew Point Humidity Wind Precip. Elev Updated Type
                   

Watches & Warnings

There are currently no watches in effect.